createdAt,value
2023-03-28T00:00:59.896Z,12.53
2023-03-28T00:03:46.927Z,12.40
2023-03-28T00:06:44.031Z,12.48
2023-03-28T00:09:27.704Z,12.54
2023-03-28T00:12:16.945Z,12.30
2023-03-28T00:14:53.961Z,12.44
2023-03-28T00:20:15.016Z,11.94
2023-03-28T00:23:03.513Z,11.90
2023-03-28T00:26:12.080Z,11.96
2023-03-28T00:29:00.063Z,12.15
2023-03-28T00:31:48.784Z,11.91
2023-03-28T00:34:25.260Z,11.74
2023-03-28T00:37:04.972Z,11.52
2023-03-28T00:40:03.208Z,12.03
2023-03-28T00:42:34.522Z,12.23
2023-03-28T00:45:11.124Z,12.45
2023-03-28T00:47:55.031Z,12.45
2023-03-28T00:50:42.270Z,11.99
2023-03-28T00:53:54.554Z,12.02
2023-03-28T00:56:49.476Z,12.41
2023-03-28T01:02:12.257Z,12.51
2023-03-28T01:04:58.270Z,12.52
2023-03-28T01:07:46.630Z,12.71
2023-03-28T01:10:25.504Z,12.00
2023-03-28T01:13:06.511Z,11.57
2023-03-28T01:15:36.121Z,11.57
2023-03-28T01:18:12.646Z,11.12
2023-03-28T01:21:24.611Z,10.89
2023-03-28T01:24:34.584Z,10.83
2023-03-28T01:27:24.165Z,10.56
2023-03-28T01:30:48.779Z,10.43
2023-03-28T01:33:31.380Z,10.46
2023-03-28T01:37:00.454Z,10.55
2023-03-28T01:40:03.759Z,10.31
2023-03-28T01:43:02.067Z,10.34
2023-03-28T01:46:07.516Z,10.56
2023-03-28T01:49:09.258Z,10.52
2023-03-28T01:52:22.893Z,10.64
2023-03-28T01:55:26.928Z,10.57
2023-03-28T01:58:41.985Z,10.39
2023-03-28T02:01:39.725Z,10.45
2023-03-28T02:04:19.858Z,10.17
2023-03-28T02:06:53.376Z,9.97
2023-03-28T02:09:32.650Z,10.26
2023-03-28T02:12:10.500Z,9.99
2023-03-28T02:14:46.934Z,9.85
2023-03-28T02:17:23.994Z,9.86
2023-03-28T02:19:59.578Z,9.84
2023-03-28T02:22:35.058Z,9.76
2023-03-28T02:25:19.288Z,9.71
2023-03-28T02:28:12.594Z,10.09
2023-03-28T02:31:03.610Z,10.48
2023-03-28T02:34:12.385Z,10.46
2023-03-28T02:37:09.468Z,10.02
2023-03-28T02:40:35.022Z,9.91
2023-03-28T02:43:27.792Z,9.57
2023-03-28T02:46:24.729Z,9.59
2023-03-28T02:49:50.040Z,9.67
2023-03-28T02:52:37.731Z,9.79
2023-03-28T02:55:04.711Z,9.77
2023-03-28T02:58:05.585Z,9.63
2023-03-28T03:00:44.803Z,9.64
2023-03-28T03:03:23.871Z,9.52
2023-03-28T03:05:56.814Z,10.15
2023-03-28T03:08:30.994Z,10.08
2023-03-28T03:10:58.060Z,9.92
2023-03-28T03:13:25.151Z,9.53
2023-03-28T03:15:53.632Z,9.45
2023-03-28T03:18:42.150Z,9.56
2023-03-28T03:21:17.764Z,9.30
2023-03-28T03:23:44.670Z,9.51
2023-03-28T03:26:12.357Z,9.26
2023-03-28T03:28:42.651Z,9.06
2023-03-28T03:31:10.939Z,8.84
2023-03-28T03:33:46.949Z,8.79
2023-03-28T03:36:14.081Z,8.81
2023-03-28T03:38:46.346Z,8.92
2023-03-28T03:44:09.075Z,8.97
2023-03-28T03:46:36.264Z,9.14
2023-03-28T03:49:06.298Z,9.14
2023-03-28T03:51:45.126Z,9.09
2023-03-28T03:54:15.014Z,9.08
2023-03-28T03:56:42.011Z,8.89
2023-03-28T03:59:09.278Z,8.91
2023-03-28T04:01:40.448Z,9.25
2023-03-28T04:04:08.165Z,9.24
2023-03-28T04:06:35.420Z,8.96
2023-03-28T04:11:46.235Z,8.84
2023-03-28T04:14:16.501Z,8.60
2023-03-28T04:16:53.918Z,8.71
2023-03-28T04:19:23.809Z,8.60
2023-03-28T04:22:05.633Z,8.59
2023-03-28T04:24:44.930Z,8.60
2023-03-28T04:27:12.495Z,8.49
2023-03-28T04:29:47.329Z,8.66
2023-03-28T04:32:23.298Z,8.55
2023-03-28T04:34:54.738Z,8.45
2023-03-28T04:37:28.010Z,8.43
2023-03-28T04:39:56.783Z,8.45
2023-03-28T04:42:45.313Z,8.32
2023-03-28T04:45:30.504Z,8.11
2023-03-28T04:48:00.405Z,8.03
2023-03-28T04:50:42.755Z,8.18
2023-03-28T04:53:22.762Z,8.24
2023-03-28T04:55:55.887Z,8.28
2023-03-28T04:58:24.420Z,8.31
2023-03-28T05:01:13.779Z,8.18
2023-03-28T05:03:48.844Z,8.19
2023-03-28T05:06:27.818Z,8.16
2023-03-28T05:08:55.491Z,8.37
2023-03-28T05:11:22.295Z,8.27
2023-03-28T05:13:56.094Z,8.37
2023-03-28T05:16:28.054Z,8.48
2023-03-28T05:19:14.095Z,9.33
2023-03-28T05:21:52.666Z,9.42
2023-03-28T05:24:19.728Z,10.37
2023-03-28T05:26:46.895Z,9.80
2023-03-28T05:29:16.574Z,9.44
2023-03-28T05:31:46.427Z,9.78
2023-03-28T05:34:13.472Z,10.14
2023-03-28T05:36:48.873Z,9.89
2023-03-28T05:39:19.853Z,9.71
2023-03-28T05:41:48.704Z,9.95
2023-03-28T05:44:18.968Z,9.98
2023-03-28T05:46:46.062Z,10.34
2023-03-28T05:49:26.105Z,10.20
2023-03-28T05:51:54.526Z,10.83
2023-03-28T05:54:21.496Z,11.11
2023-03-28T05:56:51.695Z,10.48
2023-03-28T05:59:32.865Z,10.43
2023-03-28T06:02:09.533Z,9.96
2023-03-28T06:04:42.688Z,9.86
2023-03-28T06:07:23.127Z,10.26
2023-03-28T06:09:55.665Z,11.34
2023-03-28T06:15:37.685Z,10.99
2023-03-28T06:18:26.568Z,11.12
2023-03-28T06:20:58.745Z,10.85
2023-03-28T06:23:34.858Z,11.30
2023-03-28T06:26:08.196Z,10.98
2023-03-28T06:28:35.239Z,10.88
2023-03-28T06:31:36.731Z,11.43
2023-03-28T06:34:03.885Z,11.31
2023-03-28T06:36:32.560Z,11.19
2023-03-28T06:39:08.594Z,11.40
2023-03-28T06:41:43.945Z,11.85
2023-03-28T06:44:14.575Z,12.07
2023-03-28T06:46:44.552Z,11.84
2023-03-28T06:49:22.476Z,11.86
2023-03-28T06:52:04.713Z,11.62
2023-03-28T06:54:34.110Z,11.71
2023-03-28T06:59:51.495Z,11.94
2023-03-28T07:02:26.245Z,12.17
2023-03-28T07:04:54.015Z,12.25
2023-03-28T07:07:27.238Z,12.11
2023-03-28T07:09:56.034Z,11.93
2023-03-28T07:12:25.146Z,11.75
2023-03-28T07:15:19.033Z,12.00
2023-03-28T07:18:01.242Z,11.81
2023-03-28T07:20:28.478Z,11.78
2023-03-28T07:23:16.693Z,12.08
2023-03-28T07:25:54.946Z,12.22
2023-03-28T07:28:24.355Z,12.18
2023-03-28T07:30:53.844Z,12.26
2023-03-28T07:33:32.835Z,12.17
2023-03-28T07:36:41.716Z,12.30
2023-03-28T07:39:19.413Z,12.25
2023-03-28T07:42:01.130Z,12.50
2023-03-28T07:44:36.922Z,12.41
2023-03-28T07:47:08.488Z,12.43
2023-03-28T07:49:47.019Z,12.50
2023-03-28T07:52:26.128Z,12.31
2023-03-28T07:54:54.294Z,12.34
2023-03-28T07:57:21.342Z,12.56
2023-03-28T08:00:10.008Z,12.58
2023-03-28T08:02:58.138Z,12.49
2023-03-28T08:05:32.876Z,12.42
2023-03-28T08:08:19.534Z,12.62
2023-03-28T08:10:51.701Z,12.73
2023-03-28T08:13:21.342Z,12.63
2023-03-28T08:16:17.112Z,12.68
2023-03-28T08:19:03.551Z,12.75
2023-03-28T08:21:37.740Z,12.74
2023-03-28T08:24:34.971Z,12.63
2023-03-28T08:27:15.005Z,12.77
2023-03-28T08:29:52.113Z,12.82
2023-03-28T08:32:24.010Z,13.01
2023-03-28T08:35:03.071Z,13.04
2023-03-28T08:37:30.071Z,13.18
2023-03-28T08:39:56.998Z,13.09
2023-03-28T08:42:38.975Z,13.34
2023-03-28T08:45:27.518Z,13.36
2023-03-28T08:48:14.703Z,13.42
2023-03-28T08:51:35.535Z,13.45
2023-03-28T08:54:30.673Z,13.54
2023-03-28T08:57:23.257Z,13.73
2023-03-28T09:00:04.598Z,13.61
2023-03-28T09:02:49.860Z,13.61
2023-03-28T09:05:50.208Z,13.53
2023-03-28T09:09:07.674Z,13.50
2023-03-28T09:11:54.559Z,13.58
2023-03-28T09:14:38.298Z,13.75
2023-03-28T09:17:15.271Z,13.80
2023-03-28T09:20:24.548Z,13.92
2023-03-28T09:23:38.621Z,13.85
2023-03-28T09:26:15.628Z,14.17
2023-03-28T09:29:26.212Z,14.23
2023-03-28T09:32:05.715Z,14.45
2023-03-28T09:34:47.369Z,14.54
2023-03-28T09:38:21.603Z,14.59
2023-03-28T09:44:11.471Z,14.66
2023-03-28T09:47:01.756Z,14.73
2023-03-28T09:50:09.387Z,14.97
2023-03-28T09:52:55.909Z,15.14
2023-03-28T09:55:30.176Z,15.31
2023-03-28T09:58:18.661Z,15.35
2023-03-28T10:01:06.827Z,15.28
2023-03-28T10:03:36.500Z,15.30
2023-03-28T10:06:42.441Z,15.42
2023-03-28T10:09:20.370Z,15.57
2023-03-28T10:14:54.914Z,15.82
2023-03-28T10:17:29.037Z,15.88
2023-03-28T10:20:02.417Z,16.08
2023-03-28T10:22:34.055Z,16.03
2023-03-28T10:25:17.483Z,16.23
2023-03-28T10:27:45.011Z,16.31
2023-03-28T10:30:22.857Z,16.50
2023-03-28T10:33:16.580Z,16.51
2023-03-28T10:36:13.450Z,16.42
2023-03-28T10:38:54.651Z,16.42
2023-03-28T10:41:30.378Z,16.62
2023-03-28T10:44:31.661Z,16.67
2023-03-28T10:50:39.847Z,17.02
2023-03-28T10:53:12.911Z,16.93
2023-03-28T10:59:43.207Z,17.10
2023-03-28T11:02:54.480Z,17.05
2023-03-28T11:06:08.105Z,17.23
2023-03-28T11:08:53.528Z,17.35
2023-03-28T11:12:01.533Z,17.43
2023-03-28T11:14:51.178Z,17.55
2023-03-28T11:17:41.837Z,17.37
2023-03-28T11:20:48.541Z,17.47
2023-03-28T11:26:54.119Z,17.64
2023-03-28T11:29:47.140Z,17.90
2023-03-28T11:33:28.520Z,18.03
2023-03-28T11:36:20.458Z,18.18
2023-03-28T11:39:05.503Z,18.37
2023-03-28T11:41:55.078Z,18.45
2023-03-28T11:44:39.483Z,18.38
2023-03-28T11:47:36.435Z,18.60
2023-03-28T11:50:41.745Z,18.60
2023-03-28T11:53:26.450Z,18.89
2023-03-28T11:56:39.587Z,18.69
2023-03-28T11:59:10.030Z,18.79
2023-03-28T12:01:47.518Z,18.96
2023-03-28T12:04:56.054Z,19.04
2023-03-28T12:07:39.071Z,18.94
2023-03-28T12:10:22.519Z,18.81
2023-03-28T12:13:25.291Z,18.90
2023-03-28T12:16:16.508Z,19.00
2023-03-28T12:19:09.744Z,19.15
2023-03-28T12:21:47.703Z,19.05
2023-03-28T12:24:40.858Z,18.75
2023-03-28T12:27:53.238Z,18.82
2023-03-28T12:30:29.580Z,18.16
2023-03-28T12:33:26.895Z,18.03
2023-03-28T12:36:22.442Z,18.00
2023-03-28T12:39:15.758Z,17.91
2023-03-28T12:42:13.469Z,17.57
2023-03-28T12:45:07.130Z,17.29
2023-03-28T12:47:56.475Z,17.25
2023-03-28T12:51:00.396Z,17.20
2023-03-28T12:53:35.423Z,17.23
2023-03-28T12:56:04.062Z,17.16
2023-03-28T13:02:00.515Z,17.10
2023-03-28T13:08:27.714Z,17.25
2023-03-28T13:11:31.350Z,17.18
2023-03-28T13:17:01.898Z,17.35
2023-03-28T13:19:55.737Z,17.24
2023-03-28T13:22:46.628Z,17.45
2023-03-28T13:25:22.689Z,17.31
2023-03-28T13:28:15.810Z,17.67
2023-03-28T13:30:58.657Z,17.64
2023-03-28T13:34:11.487Z,17.36
2023-03-28T13:36:38.543Z,17.37
2023-03-28T13:39:23.439Z,17.34
2023-03-28T13:45:07.107Z,16.94
2023-03-28T13:47:42.771Z,17.03
2023-03-28T13:50:34.624Z,17.16
2023-03-28T13:53:29.960Z,17.21
2023-03-28T13:56:39.232Z,17.22
2023-03-28T13:59:08.503Z,17.41
2023-03-28T14:02:02.989Z,17.38
2023-03-28T14:04:44.923Z,17.51
2023-03-28T14:07:19.136Z,17.60
2023-03-28T14:09:55.230Z,17.66
2023-03-28T14:12:29.261Z,17.64
2023-03-28T14:15:01.220Z,17.31
2023-03-28T14:17:43.357Z,17.42
2023-03-28T14:20:19.466Z,17.51
2023-03-28T14:23:00.525Z,17.58
2023-03-28T14:25:28.962Z,17.37
2023-03-28T14:28:30.086Z,17.35
2023-03-28T14:31:12.028Z,17.55
2023-03-28T14:34:11.643Z,17.25
2023-03-28T14:37:11.197Z,17.48
2023-03-28T14:40:05.007Z,17.51
2023-03-28T14:42:45.508Z,17.32
2023-03-28T14:48:08.944Z,17.36
2023-03-28T14:50:52.176Z,17.20
2023-03-28T14:54:24.127Z,17.25
2023-03-28T14:56:57.452Z,17.34
2023-03-28T14:59:45.645Z,17.45
2023-03-28T15:02:24.783Z,17.42
2023-03-28T15:05:25.548Z,16.97
2023-03-28T15:08:04.795Z,16.85
2023-03-28T15:10:47.955Z,16.90
2023-03-28T15:13:54.390Z,17.19
2023-03-28T15:19:34.550Z,16.98
2023-03-28T15:22:04.807Z,16.97
2023-03-28T15:24:38.560Z,16.98
2023-03-28T15:27:18.122Z,17.13
2023-03-28T15:29:45.066Z,17.00
2023-03-28T15:32:28.930Z,17.11
2023-03-28T15:35:03.842Z,16.97
2023-03-28T15:37:46.852Z,16.84
2023-03-28T15:40:53.726Z,17.02
2023-03-28T15:43:48.833Z,17.13
2023-03-28T15:46:24.852Z,17.02
2023-03-28T15:49:03.119Z,16.95
2023-03-28T15:51:50.766Z,16.96
2023-03-28T15:54:31.474Z,17.08
2023-03-28T16:00:01.860Z,17.06
2023-03-28T16:02:31.340Z,16.89
2023-03-28T16:05:10.652Z,16.82
2023-03-28T16:08:07.575Z,17.12
2023-03-28T16:10:47.996Z,16.95
2023-03-28T16:13:16.935Z,16.86
2023-03-28T16:15:44.344Z,16.75
2023-03-28T16:18:15.570Z,16.65
2023-03-28T16:20:47.865Z,16.64
2023-03-28T16:23:20.752Z,16.62
2023-03-28T16:26:07.128Z,16.80
2023-03-28T16:29:02.881Z,16.93
2023-03-28T16:31:33.091Z,16.91
2023-03-28T16:34:42.437Z,16.96
2023-03-28T16:37:40.478Z,16.78
2023-03-28T16:40:13.502Z,16.91
2023-03-28T16:43:19.490Z,17.08
2023-03-28T16:45:57.764Z,17.03
2023-03-28T16:48:24.990Z,16.83
2023-03-28T16:53:42.512Z,16.75
2023-03-28T16:56:18.871Z,16.46
2023-03-28T16:58:51.651Z,16.31
2023-03-28T17:01:22.275Z,16.32
2023-03-28T17:04:29.356Z,16.43
2023-03-28T17:07:02.773Z,16.43
2023-03-28T17:09:32.032Z,16.37
2023-03-28T17:11:58.958Z,16.56
2023-03-28T17:14:32.237Z,16.38
2023-03-28T17:17:05.749Z,16.32
2023-03-28T17:19:33.396Z,16.40
2023-03-28T17:22:00.889Z,16.37
2023-03-28T17:24:44.198Z,16.37
2023-03-28T17:27:14.189Z,16.43
2023-03-28T17:29:44.329Z,16.40
2023-03-28T17:32:30.978Z,16.22
2023-03-28T17:35:09.853Z,16.06
2023-03-28T17:37:54.370Z,15.95
2023-03-28T17:40:31.676Z,15.95
2023-03-28T17:43:10.398Z,15.96
2023-03-28T17:45:53.609Z,15.95
2023-03-28T17:48:38.540Z,15.94
2023-03-28T17:51:13.966Z,15.86
2023-03-28T17:53:43.565Z,15.91
2023-03-28T17:56:12.223Z,16.17
2023-03-28T17:58:39.586Z,16.27
2023-03-28T18:01:22.795Z,16.21
2023-03-28T18:03:53.171Z,16.08
2023-03-28T18:06:22.504Z,16.10
2023-03-28T18:08:50.807Z,15.86
2023-03-28T18:11:27.178Z,15.90
2023-03-28T18:13:59.263Z,16.02
2023-03-28T18:16:41.817Z,16.08
2023-03-28T18:19:25.569Z,15.79
2023-03-28T18:21:53.419Z,15.88
2023-03-28T18:24:21.722Z,15.89
2023-03-28T18:26:48.981Z,15.98
2023-03-28T18:29:22.201Z,15.70
2023-03-28T18:31:51.905Z,15.61
2023-03-28T18:34:20.854Z,15.60
2023-03-28T18:36:50.889Z,16.15
2023-03-28T18:39:18.558Z,16.06
2023-03-28T18:41:49.816Z,15.93
2023-03-28T18:50:02.567Z,16.10
2023-03-28T18:52:45.363Z,15.97
2023-03-28T18:55:25.098Z,15.87
2023-03-28T19:04:04.721Z,15.66
2023-03-28T19:06:40.044Z,16.10
2023-03-28T19:09:09.031Z,16.26
2023-03-28T19:11:57.507Z,16.12
2023-03-28T19:14:33.894Z,15.45
2023-03-28T19:17:31.717Z,15.70
2023-03-28T19:20:25.200Z,15.25
2023-03-28T19:23:08.632Z,14.66
2023-03-28T19:25:35.753Z,14.53
2023-03-28T19:28:02.773Z,14.70
2023-03-28T19:30:30.826Z,15.18
2023-03-28T19:33:18.246Z,14.59
2023-03-28T19:35:52.318Z,14.92
2023-03-28T19:38:23.146Z,15.38
2023-03-28T19:40:55.888Z,15.78
2023-03-28T19:43:29.543Z,15.19
2023-03-28T19:46:08.021Z,15.55
2023-03-28T19:48:39.993Z,15.91
2023-03-28T19:51:12.340Z,15.66
2023-03-28T19:53:46.729Z,15.79
2023-03-28T19:56:14.470Z,15.55
2023-03-28T19:58:41.758Z,15.14
2023-03-28T20:01:09.220Z,14.93
2023-03-28T20:03:39.817Z,14.91
2023-03-28T20:06:09.839Z,14.32
2023-03-28T20:08:37.128Z,13.75
2023-03-28T20:11:13.391Z,13.85
2023-03-28T20:13:46.592Z,13.51
2023-03-28T20:16:16.513Z,13.58
2023-03-28T20:19:38.069Z,13.97
2023-03-28T20:25:20.415Z,13.83
2023-03-28T20:28:04.860Z,13.84
2023-03-28T20:30:38.742Z,13.81
2023-03-28T20:33:06.085Z,13.68
2023-03-28T20:36:09.712Z,13.66
2023-03-28T20:38:39.161Z,14.07
2023-03-28T20:41:14.730Z,13.84
2023-03-28T20:44:03.634Z,14.01
2023-03-28T20:46:45.723Z,14.87
2023-03-28T20:49:13.087Z,14.78
2023-03-28T20:51:57.157Z,14.80
2023-03-28T20:54:38.272Z,14.62
2023-03-28T20:59:49.402Z,13.55
2023-03-28T21:02:29.113Z,13.33
2023-03-28T21:05:02.597Z,13.51
2023-03-28T21:07:32.363Z,13.97
2023-03-28T21:10:01.050Z,13.45
2023-03-28T21:12:42.087Z,13.43
2023-03-28T21:15:31.599Z,13.25
2023-03-28T21:18:06.090Z,13.47
2023-03-28T21:20:42.842Z,13.68
2023-03-28T21:23:18.209Z,14.16
2023-03-28T21:25:48.325Z,13.83
2023-03-28T21:28:18.909Z,13.61
2023-03-28T21:31:02.885Z,12.78
2023-03-28T21:33:33.844Z,12.54
2023-03-28T21:38:57.076Z,12.19
2023-03-28T21:41:35.607Z,12.14
2023-03-28T21:44:02.646Z,12.42
2023-03-28T21:46:53.056Z,12.60
2023-03-28T21:49:23.156Z,12.74
2023-03-28T21:51:58.574Z,13.20
2023-03-28T21:54:26.200Z,13.26
2023-03-28T21:56:54.137Z,13.59
2023-03-28T21:59:23.871Z,13.97
2023-03-28T22:01:57.864Z,14.01
2023-03-28T22:04:24.950Z,14.02
2023-03-28T22:06:52.761Z,14.03
2023-03-28T22:09:26.196Z,14.36
2023-03-28T22:12:05.901Z,14.31
2023-03-28T22:17:27.513Z,14.29
2023-03-28T22:20:12.185Z,14.35
2023-03-28T22:22:56.681Z,14.29
2023-03-28T22:25:36.157Z,14.23
2023-03-28T22:28:39.984Z,14.19
2023-03-28T22:31:22.092Z,14.25
2023-03-28T22:33:56.089Z,14.31
2023-03-28T22:36:41.503Z,14.28
2023-03-28T22:39:32.193Z,14.29
2023-03-28T22:42:10.294Z,14.22
2023-03-28T22:44:56.091Z,14.15
2023-03-28T22:47:30.617Z,14.10
2023-03-28T22:49:58.902Z,14.08
2023-03-28T22:52:36.498Z,14.00
2023-03-28T22:55:14.625Z,14.00
2023-03-28T22:57:48.334Z,13.84
2023-03-28T23:00:34.380Z,13.91
2023-03-28T23:03:04.295Z,13.83
2023-03-28T23:05:46.693Z,13.67
2023-03-28T23:08:20.318Z,13.73
2023-03-28T23:11:06.429Z,13.87
2023-03-28T23:13:38.059Z,13.92
2023-03-28T23:16:19.473Z,14.10
2023-03-28T23:18:58.850Z,14.05
2023-03-28T23:21:38.091Z,14.11
2023-03-28T23:24:06.384Z,14.13
2023-03-28T23:26:36.373Z,14.09
2023-03-28T23:29:09.458Z,14.10
2023-03-28T23:31:36.365Z,14.07
2023-03-28T23:34:18.916Z,13.93
2023-03-28T23:36:52.551Z,13.84
2023-03-28T23:39:19.556Z,13.97
2023-03-28T23:41:55.197Z,13.97
2023-03-28T23:44:25.088Z,13.91
2023-03-28T23:46:52.707Z,13.74
2023-03-28T23:49:25.130Z,13.42
2023-03-28T23:51:55.745Z,13.52
2023-03-28T23:54:23.066Z,13.76
2023-03-28T23:56:59.396Z,13.80
2023-03-28T23:59:49.977Z,13.81
